Time;durP1;ratioP1;P1;durP2;ratioP2;P2;SDS_P1;SDS_P2;PMS_P1;PMS_P2;Temp;Humidity;BMP_temperature;BMP_pressure;BME280_temperature;BME280_humidity;BME280_pressure;Samples;Min_cycle;Max_cycle;Signal;HPM_P1;HPM_P2
2020/12/09 00:00:53;;;;;;;51.57;23.03;;;;;;;0.22;71.60;100395.36;1687350;83;21380;-82
2020/12/09 00:03:18;;;;;;;55.60;24.00;;;;;;;0.21;71.66;100397.57;1693960;83;21048;-82
2020/12/09 00:05:45;;;;;;;53.38;23.30;;;;;;;0.19;71.65;100395.53;1706564;83;25394;-82
2020/12/09 00:08:11;;;;;;;54.03;22.25;;;;;;;0.18;71.72;100396.44;1697167;83;21216;-82
2020/12/09 00:10:38;;;;;;;49.45;23.52;;;;;;;0.22;71.50;100385.41;1696787;84;21686;-82
2020/12/09 00:13:04;;;;;;;46.18;20.97;;;;;;;0.10;71.82;100394.73;1697777;83;21235;-81
2020/12/09 00:15:29;;;;;;;50.17;22.82;;;;;;;0.07;71.74;100388.41;1682339;83;21624;-82
2020/12/09 00:17:55;;;;;;;55.23;23.97;;;;;;;0.09;71.86;100396.94;1687945;83;20875;-82
2020/12/09 00:20:21;;;;;;;56.67;23.70;;;;;;;0.12;71.83;100393.70;1691342;83;20966;-81
2020/12/09 00:22:46;;;;;;;52.87;24.33;;;;;;;0.05;71.92;100403.20;1687464;83;27692;-81
2020/12/09 00:25:12;;;;;;;53.73;23.93;;;;;;;0.05;71.89;100405.80;1687533;83;22936;-80
2020/12/09 00:27:38;;;;;;;48.17;22.10;;;;;;;0.07;71.77;100402.69;1677875;83;21792;-81
2020/12/09 00:30:05;;;;;;;49.63;21.90;;;;;;;0.05;71.78;100409.69;1697459;83;21001;-80
2020/12/09 00:32:31;;;;;;;57.00;24.18;;;;;;;0.08;71.65;100408.23;1684531;83;21187;-80
2020/12/09 00:34:56;;;;;;;54.23;22.97;;;;;;;0.02;71.55;100405.97;1695761;83;20990;-80
2020/12/09 00:37:22;;;;;;;43.67;20.60;;;;;;;0.07;71.50;100406.58;1680619;83;21868;-81
2020/12/09 00:39:48;;;;;;;50.13;23.83;;;;;;;0.12;71.16;100408.45;1687225;83;20943;-81
2020/12/09 00:42:14;;;;;;;51.15;23.35;;;;;;;0.09;71.33;100404.73;1696111;83;21502;-80
2020/12/09 00:44:40;;;;;;;51.37;21.97;;;;;;;0.04;71.28;100407.56;1692952;83;20926;-80
2020/12/09 00:47:05;;;;;;;47.75;22.30;;;;;;;0.04;71.54;100413.23;1686790;83;27293;-81
2020/12/09 00:49:31;;;;;;;55.53;23.53;;;;;;;0.09;71.35;100407.33;1694174;83;22105;-80
2020/12/09 00:51:58;;;;;;;59.10;25.93;;;;;;;-0.09;71.74;100405.27;1704372;82;21676;-80
2020/12/09 00:54:23;;;;;;;50.28;23.12;;;;;;;-0.03;71.60;100408.84;1691553;83;21201;-81
2020/12/09 00:56:49;;;;;;;48.10;22.30;;;;;;;-0.11;71.75;100401.45;1702127;83;21060;-82
2020/12/09 00:59:15;;;;;;;49.37;22.73;;;;;;;-0.05;71.69;100408.92;1687254;83;21027;-81
2020/12/09 01:01:40;;;;;;;47.90;21.73;;;;;;;-0.01;71.56;100407.81;1697953;83;21370;-82
2020/12/09 01:04:06;;;;;;;47.60;22.60;;;;;;;-0.01;71.45;100409.59;1683007;83;20942;-81
2020/12/09 01:06:34;;;;;;;50.57;23.27;;;;;;;-0.07;71.68;100402.13;1683030;83;20985;-81
2020/12/09 01:09:05;;;;;;;50.78;22.93;;;;;;;-0.05;71.54;100404.16;1684884;84;21169;-80
2020/12/09 01:11:30;;;;;;;54.77;21.17;;;;;;;-0.06;71.55;100404.64;1689176;83;21668;-81
2020/12/09 01:13:56;;;;;;;50.53;23.03;;;;;;;-0.09;71.55;100402.20;1675450;83;21207;-81
2020/12/09 01:16:22;;;;;;;49.47;22.37;;;;;;;-0.13;71.60;100403.27;1684081;83;21595;-81
2020/12/09 01:18:49;;;;;;;49.47;23.17;;;;;;;-0.07;71.44;100400.35;1701699;83;21013;-81
2020/12/09 01:21:14;;;;;;;48.58;22.42;;;;;;;-0.02;71.37;100400.11;1687497;83;21739;-81
2020/12/09 01:23:40;;;;;;;51.83;22.57;;;;;;;-0.06;71.54;100403.34;1697459;83;21283;-81
2020/12/09 01:26:10;;;;;;;52.77;23.80;;;;;;;-0.12;71.68;100403.66;1704300;82;21183;-80
2020/12/09 01:28:36;;;;;;;54.03;22.40;;;;;;;-0.10;71.53;100395.33;1691268;83;21289;-81
2020/12/09 01:31:02;;;;;;;46.83;21.57;;;;;;;-0.07;71.50;100399.52;1684219;83;21189;-81
2020/12/09 01:33:28;;;;;;;53.53;21.87;;;;;;;-0.02;71.45;100393.18;1679879;83;21029;-80
2020/12/09 01:35:53;;;;;;;50.87;21.00;;;;;;;0.05;71.34;100399.31;1684457;83;20986;-82
2020/12/09 01:38:19;;;;;;;51.93;21.87;;;;;;;0.02;71.38;100398.17;1687946;83;21136;-81
2020/12/09 01:40:45;;;;;;;48.40;21.80;;;;;;;0.02;71.04;100395.58;1686228;83;20993;-81
2020/12/09 01:43:11;;;;;;;51.43;23.53;;;;;;;-0.01;70.81;100397.43;1698489;83;21006;-82
2020/12/09 01:45:36;;;;;;;51.67;22.30;;;;;;;-0.06;70.78;100394.25;1690619;83;20969;-81
2020/12/09 01:48:02;;;;;;;48.87;21.73;;;;;;;-0.11;70.88;100396.27;1684070;83;21064;-81
2020/12/09 01:50:28;;;;;;;48.27;21.43;;;;;;;-0.13;70.77;100396.78;1701580;82;21903;-81
2020/12/09 01:52:54;;;;;;;52.37;21.57;;;;;;;-0.06;70.58;100399.45;1691051;83;21064;-81
2020/12/09 01:55:20;;;;;;;48.50;21.60;;;;;;;-0.09;70.67;100402.20;1703850;83;21700;-81
2020/12/09 01:57:45;;;;;;;49.03;21.70;;;;;;;-0.13;70.75;100400.68;1691507;82;21112;-79
2020/12/09 02:00:11;;;;;;;51.07;21.73;;;;;;;-0.08;70.55;100400.00;1678145;83;21045;-80
2020/12/09 02:02:37;;;;;;;43.87;21.10;;;;;;;-0.05;70.74;100405.02;1692339;83;21726;-80
2020/12/09 02:05:03;;;;;;;48.23;21.03;;;;;;;-0.02;70.32;100406.16;1698573;83;21156;-80
2020/12/09 02:07:29;;;;;;;46.73;20.30;;;;;;;-0.08;70.39;100403.89;1682141;83;22020;-79
2020/12/09 02:10:00;;;;;;;44.23;20.50;;;;;;;-0.16;70.53;100406.50;1681892;83;21213;-81
2020/12/09 02:12:26;;;;;;;48.55;21.65;;;;;;;-0.19;70.51;100408.79;1688621;83;21217;-78
2020/12/09 02:14:52;;;;;;;49.42;21.87;;;;;;;-0.25;70.65;100411.70;1681847;83;21156;-80
2020/12/09 02:17:17;;;;;;;45.17;21.00;;;;;;;-0.27;70.66;100418.27;1689758;83;21044;-80
2020/12/09 02:19:43;;;;;;;49.83;22.00;;;;;;;-0.34;70.73;100423.86;1696723;81;22067;-80
2020/12/09 02:22:11;;;;;;;46.93;20.80;;;;;;;-0.40;70.87;100419.84;1695545;81;21745;-80
2020/12/09 02:24:37;;;;;;;50.45;21.33;;;;;;;-0.37;70.99;100424.41;1686139;82;21577;-79
2020/12/09 02:27:03;;;;;;;45.35;21.05;;;;;;;-0.30;70.72;100426.69;1692902;82;22120;-79
2020/12/09 02:29:29;;;;;;;50.67;22.97;;;;;;;-0.23;70.68;100423.69;1679073;83;21627;-80
2020/12/09 02:31:54;;;;;;;48.67;21.77;;;;;;;-0.19;70.42;100424.36;1702709;83;21045;-80
2020/12/09 02:34:20;;;;;;;45.57;20.77;;;;;;;-0.21;70.26;100421.02;1706308;83;20958;-81
2020/12/09 02:36:46;;;;;;;44.33;20.33;;;;;;;-0.09;69.99;100416.95;1686022;83;21008;-79
2020/12/09 02:39:12;;;;;;;43.83;21.03;;;;;;;-0.09;69.97;100420.37;1703467;83;21253;-80
2020/12/09 02:41:37;;;;;;;48.30;21.87;;;;;;;-0.22;70.00;100407.22;1690817;83;21030;-80
2020/12/09 02:44:03;;;;;;;45.53;21.20;;;;;;;-0.23;69.92;100412.48;1689718;83;21076;-81
2020/12/09 02:46:29;;;;;;;42.93;19.83;;;;;;;-0.24;70.01;100416.81;1705038;82;20955;-82
2020/12/09 02:48:57;;;;;;;42.77;18.43;;;;;;;-0.26;69.99;100415.24;1707130;83;21047;-81
2020/12/09 02:51:22;;;;;;;;;;;;;;;-0.24;70.08;100412.09;1700928;82;21141;-79
2020/12/09 02:53:48;;;;;;;39.80;18.92;;;;;;;-0.23;70.17;100420.27;1705348;82;20262;-80
2020/12/09 02:56:16;;;;;;;45.60;20.17;;;;;;;-0.18;69.99;100416.97;1688814;84;21150;-80
2020/12/09 02:58:42;;;;;;;41.85;18.75;;;;;;;-0.19;70.19;100416.58;1678171;83;21118;-80
2020/12/09 03:01:07;;;;;;;46.07;19.20;;;;;;;-0.16;70.03;100414.29;1692212;83;21005;-80
2020/12/09 03:03:33;;;;;;;41.23;18.67;;;;;;;-0.13;70.02;100417.55;1694728;83;21118;-79
2020/12/09 03:05:59;;;;;;;40.77;19.03;;;;;;;-0.10;69.99;100413.97;1696353;83;21041;-80
2020/12/09 03:08:25;;;;;;;47.27;21.23;;;;;;;-0.13;70.05;100412.36;1682792;83;21084;-80
2020/12/09 03:10:50;;;;;;;48.97;20.77;;;;;;;-0.15;70.08;100419.40;1692502;82;21132;-81
2020/12/09 03:13:16;;;;;;;46.23;19.73;;;;;;;-0.22;70.09;100412.84;1688929;83;21636;-80
2020/12/09 03:15:42;;;;;;;40.47;19.80;;;;;;;-0.13;69.93;100408.47;1698829;82;21834;-81
2020/12/09 03:18:08;;;;;;;41.83;19.20;;;;;;;-0.17;69.98;100413.46;1683656;83;21651;-80
2020/12/09 03:20:33;;;;;;;41.43;19.13;;;;;;;-0.20;70.08;100417.05;1687973;83;20942;-82
2020/12/09 03:22:59;;;;;;;38.20;18.60;;;;;;;-0.22;70.13;100418.03;1700278;82;21010;-80
2020/12/09 03:25:25;;;;;;;40.57;19.30;;;;;;;-0.26;70.20;100412.64;1705178;84;20978;-81
2020/12/09 03:27:53;;;;;;;47.10;20.70;;;;;;;-0.25;70.24;100420.34;1686966;83;21926;-81
2020/12/09 03:30:18;;;;;;;;;;;;;;;-0.29;70.16;100412.33;1689080;83;21069;-81
2020/12/09 03:32:44;;;;;;;38.25;17.57;;;;;;;-0.24;69.96;100409.03;1689202;83;20224;-81
2020/12/09 03:35:09;;;;;;;46.27;20.87;;;;;;;-0.33;70.37;100407.38;1701918;83;21002;-81
2020/12/09 03:37:35;;;;;;;42.77;19.73;;;;;;;-0.27;70.12;100410.95;1691512;83;21042;-81
2020/12/09 03:40:01;;;;;;;40.27;19.27;;;;;;;-0.38;70.50;100412.34;1702935;83;21289;-80
2020/12/09 03:42:27;;;;;;;42.77;20.67;;;;;;;-0.40;70.50;100409.00;1693857;83;20978;-78
2020/12/09 03:44:53;;;;;;;44.00;20.37;;;;;;;-0.44;70.67;100413.95;1696080;81;21013;-81
2020/12/09 03:47:18;;;;;;;46.47;20.20;;;;;;;-0.44;70.75;100416.55;1696819;81;20962;-79
2020/12/09 03:49:44;;;;;;;45.13;20.77;;;;;;;-0.46;70.79;100417.09;1686886;83;21030;-81
2020/12/09 03:52:10;;;;;;;47.17;21.13;;;;;;;-0.50;71.09;100417.33;1700046;82;21032;-82
2020/12/09 03:54:35;;;;;;;44.60;21.30;;;;;;;-0.46;71.14;100403.30;1691115;83;21084;-82
2020/12/09 03:57:01;;;;;;;42.73;21.13;;;;;;;-0.50;71.08;100401.30;1687597;83;21143;-79
2020/12/09 03:59:27;;;;;;;44.73;20.40;;;;;;;-0.44;70.93;100402.28;1687633;83;21591;-79
2020/12/09 04:01:53;;;;;;;47.20;22.50;;;;;;;-0.50;71.05;100411.67;1694628;83;21708;-80
2020/12/09 04:04:18;;;;;;;47.93;22.37;;;;;;;-0.55;71.18;100410.62;1692096;81;21056;-79
2020/12/09 04:06:44;;;;;;;42.07;18.03;;;;;;;-0.49;71.21;100409.47;1699641;83;20950;-80
2020/12/09 04:09:10;;;;;;;47.57;21.20;;;;;;;-0.45;71.08;100405.81;1698780;82;20958;-80
2020/12/09 04:11:35;;;;;;;43.70;21.10;;;;;;;-0.48;71.15;100406.41;1694988;83;21034;-79
2020/12/09 04:14:01;;;;;;;44.07;20.07;;;;;;;-0.53;71.27;100392.38;1688642;83;21151;-79
2020/12/09 04:16:27;;;;;;;43.63;20.53;;;;;;;-0.54;71.40;100398.50;1692535;83;21273;-79
2020/12/09 04:18:53;;;;;;;43.53;20.67;;;;;;;-0.56;71.46;100397.72;1698279;83;21132;-80
2020/12/09 04:21:18;;;;;;;40.47;18.87;;;;;;;-0.48;71.42;100388.25;1690523;83;21164;-80
2020/12/09 04:23:44;;;;;;;43.40;19.27;;;;;;;-0.53;71.42;100397.56;1690152;83;21759;-80
2020/12/09 04:26:10;;;;;;;46.30;21.27;;;;;;;-0.55;71.48;100392.45;1699130;83;21059;-79
2020/12/09 04:28:35;;;;;;;50.60;23.10;;;;;;;-0.51;71.48;100393.16;1687686;83;21274;-80
2020/12/09 04:31:01;;;;;;;38.63;19.07;;;;;;;-0.70;71.91;100398.42;1678063;83;21016;-82
2020/12/09 04:33:28;;;;;;;44.47;19.93;;;;;;;-0.59;71.69;100398.73;1691087;82;20993;-79
2020/12/09 04:35:55;;;;;;;42.03;19.62;;;;;;;-0.55;71.65;100395.52;1683899;83;21271;-81
2020/12/09 04:38:21;;;;;;;46.45;20.75;;;;;;;-0.60;71.59;100394.45;1688910;83;21251;-79
2020/12/09 04:40:47;;;;;;;36.73;18.65;;;;;;;-0.58;71.62;100402.16;1688710;83;21752;-80
2020/12/09 04:43:13;;;;;;;46.60;20.77;;;;;;;-0.49;71.47;100408.64;1692987;83;21186;-80
2020/12/09 04:45:38;;;;;;;43.20;20.70;;;;;;;-0.55;71.58;100407.19;1682428;83;21054;-79
2020/12/09 04:48:10;;;;;;;48.37;20.23;;;;;;;-0.62;71.98;100409.27;1695076;83;20971;-79
2020/12/09 04:51:20;;;;;;;43.17;20.05;;;;;;;-0.64;71.93;100399.41;1690869;82;21185;-78
2020/12/09 04:53:46;;;;;;;44.90;20.23;;;;;;;-0.74;72.22;100399.52;1697067;82;21244;-80
2020/12/09 04:56:11;;;;;;;42.13;18.97;;;;;;;-0.75;72.33;100390.05;1683102;83;21049;-80
2020/12/09 04:58:45;;;;;;;45.30;21.07;;;;;;;-0.82;72.48;100391.30;1685349;83;21060;-80
2020/12/09 05:01:14;;;;;;;49.30;21.37;;;;;;;-0.81;72.58;100401.59;1693915;83;21117;-80
2020/12/09 05:03:43;;;;;;;42.50;19.40;;;;;;;-0.90;72.89;100400.75;1691180;83;21783;-80
2020/12/09 05:06:11;;;;;;;41.20;17.80;;;;;;;-0.96;73.07;100399.77;1690733;82;22120;-80
2020/12/09 05:08:37;;;;;;;41.50;20.00;;;;;;;-0.90;72.89;100398.16;1686854;83;21152;-80
2020/12/09 05:11:05;;;;;;;42.10;19.90;;;;;;;-0.87;72.99;100398.01;1693939;83;20942;-80
2020/12/09 05:13:31;;;;;;;40.73;19.92;;;;;;;-0.90;73.21;100405.94;1686535;83;21616;-80
2020/12/09 05:15:58;;;;;;;45.20;20.07;;;;;;;-0.88;73.06;100409.28;1650904;83;20998;-79
2020/12/09 05:18:35;;;;;;;44.75;19.62;;;;;;;-0.84;73.08;100419.03;1673946;83;21258;-80
2020/12/09 05:21:14;;;;;;;37.78;17.35;;;;;;;-0.91;73.19;100409.44;1697103;82;21688;-82
2020/12/09 05:23:45;;;;;;;41.60;19.20;;;;;;;-0.86;73.12;100402.26;1692687;82;21169;-79
2020/12/09 05:26:24;;;;;;;38.30;18.10;;;;;;;-0.92;73.36;100412.50;1683502;83;21149;-80
2020/12/09 05:29:10;;;;;;;36.60;17.42;;;;;;;-0.96;73.51;100414.02;1697608;82;21681;-81
2020/12/09 05:31:40;;;;;;;40.75;18.40;;;;;;;-0.96;73.57;100414.02;1683381;83;21984;-81
2020/12/09 05:34:25;;;;;;;40.28;19.40;;;;;;;-1.02;73.83;100407.84;1706541;82;21204;-81
2020/12/09 05:36:54;;;;;;;43.58;20.02;;;;;;;-1.05;73.88;100420.48;1696356;82;21657;-80
2020/12/09 05:39:20;;;;;;;43.42;18.52;;;;;;;-1.02;73.86;100413.03;1698532;82;21628;-80
2020/12/09 05:41:45;;;;;;;42.63;18.03;;;;;;;-1.04;74.14;100407.05;1700153;82;21706;-79
2020/12/09 05:44:11;;;;;;;38.93;18.37;;;;;;;-1.05;74.07;100413.17;1690353;83;21605;-80
2020/12/09 05:47:02;;;;;;;41.60;18.87;;;;;;;-1.09;74.23;100415.05;1684980;83;20977;-80
2020/12/09 05:49:30;;;;;;;39.60;18.07;;;;;;;-0.98;73.96;100417.13;1688379;83;21255;-81
2020/12/09 05:52:17;;;;;;;39.80;17.95;;;;;;;-1.01;74.10;100413.39;1707063;82;21157;-80
2020/12/09 05:54:46;;;;;;;39.38;18.30;;;;;;;-1.06;74.28;100412.78;1694014;83;21153;-80
2020/12/09 05:57:15;;;;;;;42.03;18.70;;;;;;;-1.09;74.36;100418.52;1691240;83;21177;-81
2020/12/09 05:59:46;;;;;;;43.42;19.50;;;;;;;-1.10;74.37;100419.41;1692240;83;21697;-81
2020/12/09 06:02:14;;;;;;;40.58;18.62;;;;;;;-1.11;74.45;100416.42;1707871;81;21272;-81
2020/12/09 06:04:49;;;;;;;45.35;19.75;;;;;;;-1.04;74.47;100417.42;1700123;82;21222;-80
2020/12/09 06:07:15;;;;;;;41.92;18.65;;;;;;;-1.06;74.52;100415.38;1691213;82;21154;-80
2020/12/09 06:10:14;;;;;;;41.10;18.70;;;;;;;-1.01;74.52;100421.16;1711923;82;21247;-80
2020/12/09 06:12:52;;;;;;;42.60;18.80;;;;;;;-0.95;74.28;100420.86;1695422;83;21728;-80
2020/12/09 06:15:24;;;;;;;42.98;18.35;;;;;;;-0.97;74.37;100422.23;1695146;83;21167;-81
2020/12/09 06:18:13;;;;;;;43.28;20.82;;;;;;;-0.96;74.44;100423.92;1690563;83;21184;-82
2020/12/09 06:20:40;;;;;;;37.00;16.93;;;;;;;-1.01;74.64;100431.09;1688141;82;21184;-81
2020/12/09 06:23:11;;;;;;;41.15;18.70;;;;;;;-1.03;74.81;100431.61;1699109;82;21901;-80
2020/12/09 06:25:41;;;;;;;44.73;19.25;;;;;;;-1.08;74.99;100437.48;1694028;82;21750;-82
2020/12/09 06:28:14;;;;;;;39.55;18.45;;;;;;;-1.02;74.99;100436.35;1697602;82;21647;-82
2020/12/09 06:30:40;;;;;;;43.08;18.98;;;;;;;-0.99;74.74;100431.02;1705237;83;21147;-79
2020/12/09 06:33:12;;;;;;;40.93;19.20;;;;;;;-0.93;74.68;100433.31;1678890;83;20938;-82
2020/12/09 06:35:38;;;;;;;39.70;19.37;;;;;;;-0.81;74.35;100439.19;1708664;81;21183;-82
2020/12/09 06:38:13;;;;;;;42.33;19.35;;;;;;;-0.88;74.48;100435.20;1687746;83;21192;-81
2020/12/09 06:40:57;;;;;;;39.98;17.10;;;;;;;-0.78;74.27;100436.87;1688773;82;21132;-81
2020/12/09 06:43:23;;;;;;;39.33;17.27;;;;;;;-0.85;74.43;100434.23;1682312;82;21143;-82
2020/12/09 06:45:50;;;;;;;39.27;17.97;;;;;;;-0.84;74.47;100434.16;1699712;83;21060;-82
2020/12/09 06:48:16;;;;;;;39.53;17.50;;;;;;;-0.89;74.56;100437.41;1701120;82;21921;-81
2020/12/09 06:50:46;;;;;;;40.03;18.77;;;;;;;-0.88;74.61;100439.09;1699625;82;21165;-81
2020/12/09 06:53:13;;;;;;;;;;;;;;;-0.92;74.84;100435.83;1682562;84;21673;-81
2020/12/09 06:55:39;;;;;;;38.55;17.70;;;;;;;-0.89;74.83;100434.81;1697291;83;20269;-81
2020/12/09 06:58:27;;;;;;;41.28;17.75;;;;;;;-0.90;74.91;100440.94;1697805;82;21183;-79
2020/12/09 07:01:07;;;;;;;33.48;16.32;;;;;;;-0.81;74.70;100440.48;1691944;82;21271;-80
2020/12/09 07:03:37;;;;;;;40.17;18.57;;;;;;;-0.83;74.75;100442.30;1694197;82;21271;-81
2020/12/09 07:06:22;;;;;;;45.67;20.30;;;;;;;-0.72;74.63;100438.70;1696475;82;21175;-80
2020/12/09 07:08:49;;;;;;;42.50;19.12;;;;;;;-0.73;74.64;100433.16;1699610;83;21144;-81
2020/12/09 07:11:15;;;;;;;49.25;20.80;;;;;;;-0.78;74.62;100426.51;1707854;81;21139;-80
2020/12/09 07:13:41;;;;;;;37.35;18.65;;;;;;;-0.83;74.89;100431.92;1686289;81;21227;-81
2020/12/09 07:16:07;;;;;;;42.53;18.97;;;;;;;-0.77;74.77;100431.62;1706003;82;20962;-79
2020/12/09 07:18:36;;;;;;;46.10;20.10;;;;;;;-0.77;74.83;100428.20;1703170;82;21029;-79
2020/12/09 07:21:01;;;;;;;47.48;20.35;;;;;;;-0.75;74.75;100436.72;1696031;82;21577;-80
2020/12/09 07:23:27;;;;;;;42.70;19.50;;;;;;;-0.81;74.94;100439.19;1686018;82;21072;-79
2020/12/09 07:25:56;;;;;;;45.97;18.97;;;;;;;-0.81;74.96;100436.59;1683106;83;21610;-81
2020/12/09 07:28:21;;;;;;;39.95;18.27;;;;;;;-0.79;74.88;100436.05;1699371;83;21193;-80
2020/12/09 07:30:48;;;;;;;44.67;19.50;;;;;;;-0.84;75.04;100435.89;1695514;82;21033;-81
2020/12/09 07:33:17;;;;;;;44.48;20.32;;;;;;;-0.83;75.01;100439.70;1699855;83;21752;-81
2020/12/09 07:35:43;;;;;;;41.68;18.77;;;;;;;-0.85;75.07;100441.54;1695690;82;21629;-80
2020/12/09 07:38:09;;;;;;;43.38;19.15;;;;;;;-0.78;75.06;100441.63;1691390;83;21444;-84
2020/12/09 07:40:35;;;;;;;41.73;19.23;;;;;;;-0.87;75.36;100443.38;1687820;83;20983;-82
2020/12/09 07:43:10;;;;;;;47.20;20.90;;;;;;;-0.86;75.30;100441.61;1689555;83;21177;-80
2020/12/09 07:45:41;;;;;;;45.63;20.35;;;;;;;-0.78;75.28;100446.81;1694405;83;21223;-81
2020/12/09 07:48:13;;;;;;;43.48;20.17;;;;;;;-0.83;75.28;100442.30;1698545;83;21192;-81
2020/12/09 07:50:40;;;;;;;46.48;21.00;;;;;;;-0.84;75.29;100438.48;1688322;83;22194;-82
2020/12/09 07:53:10;;;;;;;45.85;19.82;;;;;;;-0.76;75.12;100442.38;1676717;83;21212;-82
2020/12/09 07:55:36;;;;;;;45.48;20.27;;;;;;;-0.74;75.10;100437.95;1688678;83;21200;-79
2020/12/09 07:58:11;;;;;;;43.70;20.03;;;;;;;-0.72;75.06;100437.41;1689168;83;21057;-78
2020/12/09 08:00:40;;;;;;;44.83;19.40;;;;;;;-0.67;75.03;100441.53;1685268;82;21648;-81
2020/12/09 08:03:07;;;;;;;48.10;18.87;;;;;;;-0.59;74.75;100437.65;1698061;82;21325;-79
2020/12/09 08:05:37;;;;;;;45.45;19.40;;;;;;;-0.56;74.60;100440.09;1689264;82;21238;-79
2020/12/09 08:08:08;;;;;;;45.95;18.65;;;;;;;-0.60;74.80;100440.31;1683799;82;21122;-80
2020/12/09 08:10:35;;;;;;;43.15;19.37;;;;;;;-0.60;74.62;100454.58;1698909;82;21640;-79
2020/12/09 08:13:24;;;;;;;45.43;19.23;;;;;;;-0.59;74.55;100456.23;1689841;82;21278;-79
2020/12/09 08:16:10;;;;;;;48.10;21.87;;;;;;;-0.56;74.49;100465.16;1686775;83;21569;-83
2020/12/09 08:18:35;;;;;;;45.35;19.07;;;;;;;-0.57;74.43;100469.52;1694173;83;21215;-81
2020/12/09 08:21:00;;;;;;;43.07;18.73;;;;;;;-0.56;74.40;100463.43;1696864;83;21049;-79
2020/12/09 08:23:46;;;;;;;46.13;19.37;;;;;;;-0.60;74.25;100461.06;1701296;82;20973;-79
2020/12/09 08:26:12;;;;;;;43.87;19.62;;;;;;;-0.64;74.41;100462.95;1706181;82;21153;-79
2020/12/09 08:28:38;;;;;;;46.23;19.53;;;;;;;-0.61;74.37;100468.45;1692492;82;21189;-80
2020/12/09 08:31:15;;;;;;;42.62;19.90;;;;;;;-0.50;74.24;100473.11;1692677;83;21188;-79
2020/12/09 08:33:41;;;;;;;44.10;19.85;;;;;;;-0.43;74.15;100475.31;1699618;82;21227;-79
2020/12/09 08:36:10;;;;;;;42.20;20.13;;;;;;;-0.44;73.94;100477.52;1697355;83;21021;-78
2020/12/09 08:38:43;;;;;;;44.50;20.65;;;;;;;-0.35;73.74;100476.69;1693567;82;21168;-82
2020/12/09 08:41:11;;;;;;;40.80;18.65;;;;;;;-0.38;73.64;100472.02;1701829;83;21195;-80
2020/12/09 08:43:39;;;;;;;43.58;18.65;;;;;;;-0.34;73.53;100457.16;1705339;82;22309;-81
2020/12/09 08:46:06;;;;;;;49.65;20.62;;;;;;;-0.46;73.69;100452.59;1701403;82;21155;-81
2020/12/09 08:48:35;;;;;;;46.00;22.13;;;;;;;-0.33;73.49;100457.98;1701823;82;21331;-82
2020/12/09 08:51:01;;;;;;;44.50;18.60;;;;;;;-0.45;73.74;100451.22;1693589;82;21644;-80
2020/12/09 08:53:27;;;;;;;43.28;20.10;;;;;;;-0.41;73.60;100447.52;1685382;83;22057;-80
2020/12/09 08:55:53;;;;;;;45.23;20.53;;;;;;;-0.35;73.31;100446.85;1684233;83;21655;-79
2020/12/09 08:58:28;;;;;;;46.53;20.40;;;;;;;-0.38;73.36;100447.37;1678309;82;20984;-79
2020/12/09 09:00:54;;;;;;;44.67;19.23;;;;;;;-0.68;73.58;100419.95;1703877;82;21220;-79
2020/12/09 09:03:21;;;;;;;45.37;19.93;;;;;;;-0.35;73.36;100449.45;1693349;82;20966;-78
2020/12/09 09:05:51;;;;;;;43.90;21.10;;;;;;;-0.28;73.18;100447.76;1703690;82;21225;-78
2020/12/09 09:08:17;;;;;;;51.20;21.95;;;;;;;-0.31;73.20;100456.14;1698604;82;21794;-79
2020/12/09 09:10:43;;;;;;;42.53;19.30;;;;;;;-0.46;73.29;100457.31;1707533;82;21152;-78
2020/12/09 09:13:10;;;;;;;45.33;20.00;;;;;;;-0.38;73.27;100446.08;1685294;82;20958;-78
2020/12/09 09:15:35;;;;;;;45.17;18.65;;;;;;;-0.40;73.35;100454.88;1683116;83;21721;-79
2020/12/09 09:18:02;;;;;;;44.33;19.70;;;;;;;-0.39;73.44;100453.50;1696843;83;21906;-79
2020/12/09 09:20:28;;;;;;;43.55;19.32;;;;;;;-0.37;73.39;100451.66;1701693;82;21360;-79
2020/12/09 09:22:54;;;;;;;39.70;18.30;;;;;;;-0.31;73.20;100450.95;1699438;82;21068;-78
2020/12/09 09:25:21;;;;;;;41.53;19.07;;;;;;;-0.29;73.14;100453.02;1702043;82;20980;-78
2020/12/09 09:27:47;;;;;;;41.02;17.77;;;;;;;-0.26;72.94;100451.57;1687307;83;21228;-79
2020/12/09 09:30:13;;;;;;;37.73;18.48;;;;;;;-0.25;72.85;100449.34;1684344;83;21249;-79
2020/12/09 09:32:39;;;;;;;43.77;20.60;;;;;;;-0.22;72.84;100451.77;1691030;83;21032;-78
2020/12/09 09:35:05;;;;;;;39.27;18.83;;;;;;;-0.27;72.92;100452.48;1696108;82;21060;-78
2020/12/09 09:37:30;;;;;;;45.20;20.20;;;;;;;-0.27;72.85;100456.38;1682943;83;20927;-79
2020/12/09 09:39:56;;;;;;;43.47;19.90;;;;;;;-0.33;73.18;100452.80;1683073;82;21060;-78
2020/12/09 09:42:22;;;;;;;46.37;19.57;;;;;;;-0.30;73.08;100447.45;1703068;82;22223;-79
2020/12/09 09:44:49;;;;;;;46.17;19.93;;;;;;;-0.47;73.19;100443.95;1695519;82;21092;-79
2020/12/09 09:47:15;;;;;;;39.53;18.12;;;;;;;-0.39;73.26;100449.61;1701723;82;21157;-79
2020/12/09 09:49:41;;;;;;;43.97;18.07;;;;;;;-0.31;73.20;100448.35;1705131;82;21683;-80
2020/12/09 09:52:07;;;;;;;38.40;17.27;;;;;;;-0.26;72.90;100445.08;1690286;83;21083;-79
2020/12/09 09:54:33;;;;;;;38.97;18.03;;;;;;;-0.19;72.85;100442.53;1691063;83;21185;-83
2020/12/09 09:56:59;;;;;;;46.68;20.17;;;;;;;-0.18;72.93;100441.63;1691179;83;21649;-84
2020/12/09 09:59:24;;;;;;;47.57;21.70;;;;;;;-0.18;72.88;100439.03;1668545;83;21001;-78
2020/12/09 10:01:52;;;;;;;41.77;19.23;;;;;;;-0.15;72.89;100433.67;1691732;82;20989;-78
2020/12/09 10:04:19;;;;;;;43.38;19.42;;;;;;;-0.06;72.75;100436.26;1691971;83;22327;-77
2020/12/09 10:06:45;;;;;;;41.98;20.32;;;;;;;-0.07;72.70;100439.30;1681879;82;21398;-77
2020/12/09 10:09:11;;;;;;;47.13;20.50;;;;;;;-0.02;72.37;100441.20;1696795;82;20974;-76
2020/12/09 10:11:40;;;;;;;44.63;19.83;;;;;;;-0.06;72.31;100437.08;1692685;83;21006;-78
2020/12/09 10:14:06;;;;;;;42.80;19.32;;;;;;;-0.02;72.26;100439.91;1685423;83;21187;-77
2020/12/09 10:16:32;;;;;;;41.80;17.95;;;;;;;-0.11;72.31;100422.22;1699088;83;21367;-77
2020/12/09 10:18:59;;;;;;;44.23;20.37;;;;;;;-0.04;72.21;100424.02;1700912;82;21453;-76
2020/12/09 10:21:29;;;;;;;49.38;20.90;;;;;;;-0.09;72.28;100430.76;1691335;83;21804;-76
2020/12/09 10:23:55;;;;;;;48.33;21.37;;;;;;;-0.06;72.27;100415.02;1696703;83;21223;-77
2020/12/09 10:26:34;;;;;;;42.08;18.85;;;;;;;-0.03;72.12;100416.63;1696446;83;21192;-77
2020/12/09 10:29:01;;;;;;;54.20;20.88;;;;;;;-0.08;72.16;100418.61;1693238;83;21244;-80
2020/12/09 10:31:48;;;;;;;46.15;19.98;;;;;;;-0.19;72.39;100413.98;1693308;83;21253;-79
2020/12/09 10:34:18;;;;;;;39.90;18.52;;;;;;;-0.16;72.55;100423.37;1697605;82;21601;-76
2020/12/09 10:36:49;;;;;;;46.53;19.10;;;;;;;-0.17;72.38;100404.38;1694219;82;21216;-76
2020/12/09 10:39:17;;;;;;;46.80;20.48;;;;;;;-0.01;72.43;100416.08;1702859;82;21200;-79
2020/12/09 10:41:42;;;;;;;;;;;;;;;0.12;71.96;100422.73;1706855;82;21196;-78
2020/12/09 10:44:09;;;;;;;42.15;19.17;;;;;;;0.22;71.71;100416.14;1698524;83;21190;-79
2020/12/09 10:46:36;;;;;;;42.15;18.52;;;;;;;0.30;71.41;100420.45;1680020;83;22030;-76
2020/12/09 10:49:06;;;;;;;48.20;20.25;;;;;;;0.23;71.24;100415.20;1691340;83;21121;-77
2020/12/09 10:51:32;;;;;;;43.23;18.67;;;;;;;0.19;71.46;100404.62;1699423;82;22371;-78
2020/12/09 10:53:58;;;;;;;42.45;19.37;;;;;;;0.22;71.46;100403.16;1702988;82;21224;-77
2020/12/09 10:56:28;;;;;;;43.53;19.77;;;;;;;0.17;71.30;100402.10;1696709;82;21175;-76
2020/12/09 10:58:55;;;;;;;44.80;19.42;;;;;;;0.20;71.04;100390.69;1699954;81;21677;-78
2020/12/09 11:01:22;;;;;;;43.70;19.37;;;;;;;0.20;71.04;100390.69;1703301;82;21231;-77
2020/12/09 11:03:48;;;;;;;44.83;19.50;;;;;;;0.25;71.23;100402.98;1702477;82;21568;-76
2020/12/09 11:06:15;;;;;;;46.23;20.90;;;;;;;0.32;71.09;100405.61;1705073;82;21176;-77
2020/12/09 11:08:41;;;;;;;52.23;22.35;;;;;;;0.11;71.49;100389.89;1689007;82;21426;-76
2020/12/09 11:11:07;;;;;;;45.90;20.37;;;;;;;0.11;71.49;100389.89;1700647;83;21163;-76
2020/12/09 11:13:33;;;;;;;43.63;20.80;;;;;;;0.25;71.08;100408.18;1705552;82;21089;-77
2020/12/09 11:15:59;;;;;;;45.08;20.00;;;;;;;0.21;71.34;100401.47;1687162;82;21188;-78